sensor_id;sensor_type;location;lat;lon;timestamp;P1;durP1;ratioP1;P2;durP2;ratioP2
54191;SDS011;40101;53.002;6.488;2022-07-09T00:00:05;14.02;;;6.00;;
54191;SDS011;40101;53.002;6.488;2022-07-09T00:02:31;9.75;;;6.13;;
54191;SDS011;40101;53.002;6.488;2022-07-09T00:04:57;11.10;;;6.25;;
54191;SDS011;40101;53.002;6.488;2022-07-09T00:07:22;11.23;;;5.93;;
54191;SDS011;40101;53.002;6.488;2022-07-09T00:09:48;12.32;;;5.80;;
54191;SDS011;40101;53.002;6.488;2022-07-09T00:12:13;13.40;;;6.45;;
54191;SDS011;40101;53.002;6.488;2022-07-09T00:14:39;9.15;;;5.03;;
54191;SDS011;40101;53.002;6.488;2022-07-09T00:17:05;10.77;;;5.45;;
54191;SDS011;40101;53.002;6.488;2022-07-09T00:19:30;11.25;;;6.35;;
54191;SDS011;40101;53.002;6.488;2022-07-09T00:21:56;12.02;;;6.20;;
54191;SDS011;40101;53.002;6.488;2022-07-09T00:24:22;10.60;;;6.22;;
54191;SDS011;40101;53.002;6.488;2022-07-09T00:26:47;16.58;;;6.28;;
54191;SDS011;40101;53.002;6.488;2022-07-09T00:29:13;7.70;;;5.95;;
54191;SDS011;40101;53.002;6.488;2022-07-09T00:31:38;9.85;;;5.38;;
54191;SDS011;40101;53.002;6.488;2022-07-09T00:34:04;11.95;;;5.63;;
54191;SDS011;40101;53.002;6.488;2022-07-09T00:36:30;11.38;;;5.93;;
54191;SDS011;40101;53.002;6.488;2022-07-09T00:38:55;10.68;;;6.85;;
54191;SDS011;40101;53.002;6.488;2022-07-09T00:41:21;14.85;;;6.65;;
54191;SDS011;40101;53.002;6.488;2022-07-09T00:43:47;9.73;;;5.72;;
54191;SDS011;40101;53.002;6.488;2022-07-09T00:46:14;12.13;;;6.32;;
54191;SDS011;40101;53.002;6.488;2022-07-09T00:48:40;13.25;;;6.57;;
54191;SDS011;40101;53.002;6.488;2022-07-09T00:51:06;12.77;;;5.75;;
54191;SDS011;40101;53.002;6.488;2022-07-09T00:53:32;10.75;;;5.97;;
54191;SDS011;40101;53.002;6.488;2022-07-09T00:55:58;11.30;;;6.60;;
54191;SDS011;40101;53.002;6.488;2022-07-09T00:58:25;9.50;;;6.15;;
54191;SDS011;40101;53.002;6.488;2022-07-09T01:00:52;13.80;;;7.80;;
54191;SDS011;40101;53.002;6.488;2022-07-09T01:03:18;15.35;;;6.18;;
54191;SDS011;40101;53.002;6.488;2022-07-09T01:05:44;15.88;;;6.78;;
54191;SDS011;40101;53.002;6.488;2022-07-09T01:08:10;11.38;;;7.07;;
54191;SDS011;40101;53.002;6.488;2022-07-09T01:10:36;9.65;;;6.07;;
54191;SDS011;40101;53.002;6.488;2022-07-09T01:13:03;11.13;;;6.18;;
54191;SDS011;40101;53.002;6.488;2022-07-09T01:15:29;15.73;;;6.55;;
54191;SDS011;40101;53.002;6.488;2022-07-09T01:17:55;8.45;;;5.63;;
54191;SDS011;40101;53.002;6.488;2022-07-09T01:20:22;11.77;;;6.00;;
54191;SDS011;40101;53.002;6.488;2022-07-09T01:22:49;15.73;;;6.30;;
54191;SDS011;40101;53.002;6.488;2022-07-09T01:25:16;13.63;;;7.25;;
54191;SDS011;40101;53.002;6.488;2022-07-09T01:27:42;13.43;;;6.88;;
54191;SDS011;40101;53.002;6.488;2022-07-09T01:30:08;9.55;;;7.25;;
54191;SDS011;40101;53.002;6.488;2022-07-09T01:32:34;13.02;;;7.10;;
54191;SDS011;40101;53.002;6.488;2022-07-09T01:34:59;9.23;;;6.03;;
54191;SDS011;40101;53.002;6.488;2022-07-09T01:37:25;12.15;;;7.32;;
54191;SDS011;40101;53.002;6.488;2022-07-09T01:39:51;16.30;;;7.18;;
54191;SDS011;40101;53.002;6.488;2022-07-09T01:42:17;11.52;;;7.32;;
54191;SDS011;40101;53.002;6.488;2022-07-09T01:44:43;11.85;;;7.63;;
54191;SDS011;40101;53.002;6.488;2022-07-09T01:47:09;12.00;;;7.18;;
54191;SDS011;40101;53.002;6.488;2022-07-09T01:49:35;14.65;;;8.20;;
54191;SDS011;40101;53.002;6.488;2022-07-09T01:52:01;21.88;;;9.10;;
54191;SDS011;40101;53.002;6.488;2022-07-09T01:54:26;17.38;;;8.18;;
54191;SDS011;40101;53.002;6.488;2022-07-09T01:56:52;13.80;;;8.48;;
54191;SDS011;40101;53.002;6.488;2022-07-09T01:59:17;17.75;;;9.60;;
54191;SDS011;40101;53.002;6.488;2022-07-09T02:01:43;13.13;;;8.02;;
54191;SDS011;40101;53.002;6.488;2022-07-09T02:04:08;13.40;;;8.07;;
54191;SDS011;40101;53.002;6.488;2022-07-09T02:06:34;16.67;;;9.32;;
54191;SDS011;40101;53.002;6.488;2022-07-09T02:09:00;13.68;;;8.27;;
54191;SDS011;40101;53.002;6.488;2022-07-09T02:11:25;19.17;;;10.13;;
54191;SDS011;40101;53.002;6.488;2022-07-09T02:13:51;14.25;;;8.88;;
54191;SDS011;40101;53.002;6.488;2022-07-09T02:16:17;21.98;;;9.13;;
54191;SDS011;40101;53.002;6.488;2022-07-09T02:18:43;13.35;;;8.82;;
54191;SDS011;40101;53.002;6.488;2022-07-09T02:21:09;12.80;;;8.60;;
54191;SDS011;40101;53.002;6.488;2022-07-09T02:23:34;16.52;;;9.50;;
54191;SDS011;40101;53.002;6.488;2022-07-09T02:26:00;21.58;;;11.02;;
54191;SDS011;40101;53.002;6.488;2022-07-09T02:28:26;13.73;;;9.00;;
54191;SDS011;40101;53.002;6.488;2022-07-09T02:30:51;12.90;;;9.23;;
54191;SDS011;40101;53.002;6.488;2022-07-09T02:33:17;13.98;;;8.52;;
54191;SDS011;40101;53.002;6.488;2022-07-09T02:35:42;16.02;;;9.73;;
54191;SDS011;40101;53.002;6.488;2022-07-09T02:38:08;16.75;;;8.98;;
54191;SDS011;40101;53.002;6.488;2022-07-09T02:40:34;19.73;;;8.88;;
54191;SDS011;40101;53.002;6.488;2022-07-09T02:42:59;14.57;;;8.80;;
54191;SDS011;40101;53.002;6.488;2022-07-09T02:45:25;11.38;;;9.05;;
54191;SDS011;40101;53.002;6.488;2022-07-09T02:47:51;14.63;;;9.10;;
54191;SDS011;40101;53.002;6.488;2022-07-09T02:50:16;10.85;;;8.32;;
54191;SDS011;40101;53.002;6.488;2022-07-09T02:52:42;17.83;;;10.65;;
54191;SDS011;40101;53.002;6.488;2022-07-09T02:55:08;12.18;;;8.93;;
54191;SDS011;40101;53.002;6.488;2022-07-09T02:57:33;15.52;;;9.63;;
54191;SDS011;40101;53.002;6.488;2022-07-09T02:59:59;16.65;;;9.23;;
54191;SDS011;40101;53.002;6.488;2022-07-09T03:02:25;14.35;;;8.75;;
54191;SDS011;40101;53.002;6.488;2022-07-09T03:04:51;16.33;;;9.02;;
54191;SDS011;40101;53.002;6.488;2022-07-09T03:07:16;13.82;;;8.00;;
54191;SDS011;40101;53.002;6.488;2022-07-09T03:09:42;12.95;;;8.10;;
54191;SDS011;40101;53.002;6.488;2022-07-09T03:12:08;11.20;;;8.55;;
54191;SDS011;40101;53.002;6.488;2022-07-09T03:14:33;11.52;;;8.40;;
54191;SDS011;40101;53.002;6.488;2022-07-09T03:17:00;18.55;;;8.00;;
54191;SDS011;40101;53.002;6.488;2022-07-09T03:19:25;13.98;;;8.30;;
54191;SDS011;40101;53.002;6.488;2022-07-09T03:21:51;13.82;;;8.05;;
54191;SDS011;40101;53.002;6.488;2022-07-09T03:24:17;16.70;;;8.73;;
54191;SDS011;40101;53.002;6.488;2022-07-09T03:26:42;17.83;;;9.25;;
54191;SDS011;40101;53.002;6.488;2022-07-09T03:29:08;18.05;;;6.97;;
54191;SDS011;40101;53.002;6.488;2022-07-09T03:31:33;13.25;;;7.32;;
54191;SDS011;40101;53.002;6.488;2022-07-09T03:33:59;16.75;;;7.78;;
54191;SDS011;40101;53.002;6.488;2022-07-09T03:36:25;11.75;;;7.50;;
54191;SDS011;40101;53.002;6.488;2022-07-09T03:38:50;15.07;;;7.65;;
54191;SDS011;40101;53.002;6.488;2022-07-09T03:41:16;15.15;;;7.95;;
54191;SDS011;40101;53.002;6.488;2022-07-09T03:43:42;15.57;;;8.23;;
54191;SDS011;40101;53.002;6.488;2022-07-09T03:46:07;13.43;;;6.75;;
54191;SDS011;40101;53.002;6.488;2022-07-09T03:48:33;13.68;;;7.20;;
54191;SDS011;40101;53.002;6.488;2022-07-09T03:51:02;15.90;;;7.15;;
54191;SDS011;40101;53.002;6.488;2022-07-09T03:53:27;14.00;;;7.93;;
54191;SDS011;40101;53.002;6.488;2022-07-09T03:55:53;10.68;;;6.22;;
54191;SDS011;40101;53.002;6.488;2022-07-09T03:58:19;9.73;;;6.40;;
54191;SDS011;40101;53.002;6.488;2022-07-09T04:00:44;11.90;;;6.45;;
54191;SDS011;40101;53.002;6.488;2022-07-09T04:03:10;12.65;;;6.20;;
54191;SDS011;40101;53.002;6.488;2022-07-09T04:05:35;14.90;;;6.95;;
54191;SDS011;40101;53.002;6.488;2022-07-09T04:08:01;11.88;;;6.30;;
54191;SDS011;40101;53.002;6.488;2022-07-09T04:10:27;10.20;;;6.18;;
54191;SDS011;40101;53.002;6.488;2022-07-09T04:12:52;10.48;;;5.78;;
54191;SDS011;40101;53.002;6.488;2022-07-09T04:15:18;12.55;;;5.60;;
54191;SDS011;40101;53.002;6.488;2022-07-09T04:17:43;13.75;;;6.97;;
54191;SDS011;40101;53.002;6.488;2022-07-09T04:20:09;11.65;;;6.82;;
54191;SDS011;40101;53.002;6.488;2022-07-09T04:22:35;16.73;;;7.03;;
54191;SDS011;40101;53.002;6.488;2022-07-09T04:25:01;14.50;;;6.95;;
54191;SDS011;40101;53.002;6.488;2022-07-09T04:27:26;17.10;;;6.53;;
54191;SDS011;40101;53.002;6.488;2022-07-09T04:29:52;9.73;;;5.80;;
54191;SDS011;40101;53.002;6.488;2022-07-09T04:32:18;9.25;;;6.40;;
54191;SDS011;40101;53.002;6.488;2022-07-09T04:34:44;13.90;;;7.32;;
54191;SDS011;40101;53.002;6.488;2022-07-09T04:37:10;13.38;;;7.13;;
54191;SDS011;40101;53.002;6.488;2022-07-09T04:39:35;19.02;;;7.93;;
54191;SDS011;40101;53.002;6.488;2022-07-09T04:42:01;14.07;;;8.15;;
54191;SDS011;40101;53.002;6.488;2022-07-09T04:44:26;10.57;;;6.32;;
54191;SDS011;40101;53.002;6.488;2022-07-09T04:46:52;18.67;;;7.63;;
54191;SDS011;40101;53.002;6.488;2022-07-09T04:49:18;11.50;;;7.15;;
54191;SDS011;40101;53.002;6.488;2022-07-09T04:51:43;17.35;;;7.80;;
54191;SDS011;40101;53.002;6.488;2022-07-09T04:54:09;15.95;;;7.97;;
54191;SDS011;40101;53.002;6.488;2022-07-09T04:56:34;10.15;;;7.32;;
54191;SDS011;40101;53.002;6.488;2022-07-09T04:59:01;12.25;;;7.93;;
54191;SDS011;40101;53.002;6.488;2022-07-09T05:01:27;13.88;;;7.88;;
54191;SDS011;40101;53.002;6.488;2022-07-09T05:03:54;14.65;;;6.95;;
54191;SDS011;40101;53.002;6.488;2022-07-09T05:06:20;11.02;;;7.15;;
54191;SDS011;40101;53.002;6.488;2022-07-09T05:08:46;13.82;;;8.18;;
54191;SDS011;40101;53.002;6.488;2022-07-09T05:11:12;13.73;;;7.88;;
54191;SDS011;40101;53.002;6.488;2022-07-09T05:13:38;14.38;;;8.52;;
54191;SDS011;40101;53.002;6.488;2022-07-09T05:16:07;11.68;;;7.63;;
54191;SDS011;40101;53.002;6.488;2022-07-09T05:18:34;13.15;;;8.50;;
54191;SDS011;40101;53.002;6.488;2022-07-09T05:21:01;10.43;;;6.70;;
54191;SDS011;40101;53.002;6.488;2022-07-09T05:23:27;13.82;;;8.75;;
54191;SDS011;40101;53.002;6.488;2022-07-09T05:25:52;12.25;;;8.05;;
54191;SDS011;40101;53.002;6.488;2022-07-09T05:28:18;14.63;;;8.45;;
54191;SDS011;40101;53.002;6.488;2022-07-09T05:30:44;11.23;;;7.55;;
54191;SDS011;40101;53.002;6.488;2022-07-09T05:33:09;13.35;;;8.30;;
54191;SDS011;40101;53.002;6.488;2022-07-09T05:35:35;15.15;;;8.25;;
54191;SDS011;40101;53.002;6.488;2022-07-09T05:38:01;10.45;;;6.93;;
54191;SDS011;40101;53.002;6.488;2022-07-09T05:40:27;13.00;;;7.70;;
54191;SDS011;40101;53.002;6.488;2022-07-09T05:42:52;10.07;;;6.50;;
54191;SDS011;40101;53.002;6.488;2022-07-09T05:45:18;11.40;;;6.70;;
54191;SDS011;40101;53.002;6.488;2022-07-09T05:47:44;12.63;;;6.85;;
54191;SDS011;40101;53.002;6.488;2022-07-09T05:50:10;9.10;;;6.47;;
54191;SDS011;40101;53.002;6.488;2022-07-09T05:52:36;10.38;;;6.95;;
54191;SDS011;40101;53.002;6.488;2022-07-09T05:55:01;9.13;;;6.18;;
54191;SDS011;40101;53.002;6.488;2022-07-09T05:57:30;9.68;;;5.90;;
54191;SDS011;40101;53.002;6.488;2022-07-09T05:59:57;11.32;;;5.88;;
54191;SDS011;40101;53.002;6.488;2022-07-09T06:02:22;9.35;;;6.15;;
54191;SDS011;40101;53.002;6.488;2022-07-09T06:04:48;10.43;;;6.32;;
54191;SDS011;40101;53.002;6.488;2022-07-09T06:07:14;9.23;;;6.45;;
54191;SDS011;40101;53.002;6.488;2022-07-09T06:09:40;10.05;;;6.38;;
54191;SDS011;40101;53.002;6.488;2022-07-09T06:12:05;10.13;;;6.32;;
54191;SDS011;40101;53.002;6.488;2022-07-09T06:14:32;9.27;;;6.07;;
54191;SDS011;40101;53.002;6.488;2022-07-09T06:16:58;8.40;;;5.90;;
54191;SDS011;40101;53.002;6.488;2022-07-09T06:19:30;8.50;;;5.32;;
54191;SDS011;40101;53.002;6.488;2022-07-09T06:21:56;7.15;;;4.80;;
54191;SDS011;40101;53.002;6.488;2022-07-09T06:24:22;7.30;;;4.43;;
54191;SDS011;40101;53.002;6.488;2022-07-09T06:26:49;10.95;;;5.40;;
54191;SDS011;40101;53.002;6.488;2022-07-09T06:29:15;6.28;;;4.47;;
54191;SDS011;40101;53.002;6.488;2022-07-09T06:31:41;9.23;;;5.15;;
54191;SDS011;40101;53.002;6.488;2022-07-09T06:34:06;7.97;;;4.57;;
54191;SDS011;40101;53.002;6.488;2022-07-09T06:36:32;9.25;;;4.60;;
54191;SDS011;40101;53.002;6.488;2022-07-09T06:38:58;10.75;;;4.95;;
54191;SDS011;40101;53.002;6.488;2022-07-09T06:41:42;9.00;;;4.43;;
54191;SDS011;40101;53.002;6.488;2022-07-09T06:44:08;7.80;;;4.45;;
54191;SDS011;40101;53.002;6.488;2022-07-09T06:46:34;8.80;;;4.50;;
54191;SDS011;40101;53.002;6.488;2022-07-09T06:49:00;7.10;;;3.92;;
54191;SDS011;40101;53.002;6.488;2022-07-09T06:51:26;7.00;;;3.70;;
54191;SDS011;40101;53.002;6.488;2022-07-09T06:53:52;6.10;;;3.85;;
54191;SDS011;40101;53.002;6.488;2022-07-09T06:56:20;7.57;;;3.65;;
54191;SDS011;40101;53.002;6.488;2022-07-09T06:58:47;10.40;;;3.50;;
54191;SDS011;40101;53.002;6.488;2022-07-09T07:01:13;7.05;;;3.15;;
54191;SDS011;40101;53.002;6.488;2022-07-09T07:03:39;6.55;;;2.95;;
54191;SDS011;40101;53.002;6.488;2022-07-09T07:06:04;5.85;;;3.22;;
54191;SDS011;40101;53.002;6.488;2022-07-09T07:08:30;5.28;;;2.97;;
54191;SDS011;40101;53.002;6.488;2022-07-09T07:10:55;5.43;;;2.67;;
54191;SDS011;40101;53.002;6.488;2022-07-09T07:13:21;7.03;;;2.97;;
54191;SDS011;40101;53.002;6.488;2022-07-09T07:15:47;7.80;;;3.03;;
54191;SDS011;40101;53.002;6.488;2022-07-09T07:18:15;6.07;;;2.92;;
54191;SDS011;40101;53.002;6.488;2022-07-09T07:20:42;4.07;;;2.78;;
54191;SDS011;40101;53.002;6.488;2022-07-09T07:23:08;7.22;;;2.78;;
54191;SDS011;40101;53.002;6.488;2022-07-09T07:25:33;8.10;;;3.03;;
54191;SDS011;40101;53.002;6.488;2022-07-09T07:27:59;6.47;;;3.25;;
54191;SDS011;40101;53.002;6.488;2022-07-09T07:30:26;8.65;;;3.28;;
54191;SDS011;40101;53.002;6.488;2022-07-09T07:32:52;6.93;;;2.85;;
54191;SDS011;40101;53.002;6.488;2022-07-09T07:35:18;4.40;;;2.45;;
54191;SDS011;40101;53.002;6.488;2022-07-09T07:37:43;3.75;;;1.92;;
54191;SDS011;40101;53.002;6.488;2022-07-09T07:40:09;5.20;;;2.20;;
54191;SDS011;40101;53.002;6.488;2022-07-09T07:42:35;5.93;;;2.17;;
54191;SDS011;40101;53.002;6.488;2022-07-09T07:45:01;4.55;;;2.15;;
54191;SDS011;40101;53.002;6.488;2022-07-09T07:47:26;4.45;;;2.22;;
54191;SDS011;40101;53.002;6.488;2022-07-09T07:49:52;3.65;;;1.98;;
54191;SDS011;40101;53.002;6.488;2022-07-09T07:52:19;3.92;;;1.60;;
54191;SDS011;40101;53.002;6.488;2022-07-09T07:54:44;4.38;;;1.83;;
54191;SDS011;40101;53.002;6.488;2022-07-09T07:57:10;3.10;;;1.63;;
54191;SDS011;40101;53.002;6.488;2022-07-09T07:59:35;3.67;;;1.75;;
54191;SDS011;40101;53.002;6.488;2022-07-09T08:02:01;3.47;;;2.10;;
54191;SDS011;40101;53.002;6.488;2022-07-09T08:04:27;3.38;;;1.25;;
54191;SDS011;40101;53.002;6.488;2022-07-09T08:06:52;2.67;;;1.50;;
54191;SDS011;40101;53.002;6.488;2022-07-09T08:09:18;5.05;;;1.55;;
54191;SDS011;40101;53.002;6.488;2022-07-09T08:11:43;4.43;;;1.20;;
54191;SDS011;40101;53.002;6.488;2022-07-09T08:14:09;3.00;;;1.10;;
54191;SDS011;40101;53.002;6.488;2022-07-09T08:16:35;5.75;;;1.95;;
54191;SDS011;40101;53.002;6.488;2022-07-09T08:19:00;5.35;;;1.17;;
54191;SDS011;40101;53.002;6.488;2022-07-09T08:21:26;2.60;;;1.45;;
54191;SDS011;40101;53.002;6.488;2022-07-09T08:23:52;4.75;;;1.50;;
54191;SDS011;40101;53.002;6.488;2022-07-09T08:26:25;5.55;;;1.00;;
54191;SDS011;40101;53.002;6.488;2022-07-09T08:28:53;3.55;;;0.80;;
54191;SDS011;40101;53.002;6.488;2022-07-09T08:31:19;2.63;;;1.30;;
54191;SDS011;40101;53.002;6.488;2022-07-09T08:33:45;2.42;;;1.27;;
54191;SDS011;40101;53.002;6.488;2022-07-09T08:36:11;1.60;;;1.10;;
54191;SDS011;40101;53.002;6.488;2022-07-09T08:38:37;2.92;;;1.10;;
54191;SDS011;40101;53.002;6.488;2022-07-09T08:41:04;3.65;;;1.02;;
54191;SDS011;40101;53.002;6.488;2022-07-09T08:43:34;4.10;;;1.00;;
54191;SDS011;40101;53.002;6.488;2022-07-09T08:46:01;2.58;;;1.10;;
54191;SDS011;40101;53.002;6.488;2022-07-09T08:48:27;1.77;;;0.80;;
54191;SDS011;40101;53.002;6.488;2022-07-09T08:50:54;2.72;;;0.90;;
54191;SDS011;40101;53.002;6.488;2022-07-09T08:53:22;3.38;;;0.98;;
54191;SDS011;40101;53.002;6.488;2022-07-09T08:55:48;2.25;;;0.80;;
54191;SDS011;40101;53.002;6.488;2022-07-09T08:58:15;1.77;;;0.80;;
54191;SDS011;40101;53.002;6.488;2022-07-09T09:00:40;2.50;;;1.08;;
54191;SDS011;40101;53.002;6.488;2022-07-09T09:03:06;1.77;;;0.82;;
54191;SDS011;40101;53.002;6.488;2022-07-09T09:05:32;2.30;;;0.95;;
54191;SDS011;40101;53.002;6.488;2022-07-09T09:07:58;3.10;;;1.10;;
54191;SDS011;40101;53.002;6.488;2022-07-09T09:10:25;2.67;;;1.15;;
54191;SDS011;40101;53.002;6.488;2022-07-09T09:12:55;3.05;;;0.88;;
54191;SDS011;40101;53.002;6.488;2022-07-09T09:15:24;2.90;;;0.80;;
54191;SDS011;40101;53.002;6.488;2022-07-09T09:17:50;5.35;;;1.17;;
54191;SDS011;40101;53.002;6.488;2022-07-09T09:20:16;4.70;;;0.90;;
54191;SDS011;40101;53.002;6.488;2022-07-09T09:22:50;3.00;;;0.90;;
54191;SDS011;40101;53.002;6.488;2022-07-09T09:25:24;4.80;;;1.10;;
54191;SDS011;40101;53.002;6.488;2022-07-09T09:27:57;3.63;;;0.80;;
54191;SDS011;40101;53.002;6.488;2022-07-09T09:30:24;3.17;;;1.00;;
54191;SDS011;40101;53.002;6.488;2022-07-09T09:32:55;2.67;;;0.82;;
54191;SDS011;40101;53.002;6.488;2022-07-09T09:35:23;3.72;;;1.02;;
54191;SDS011;40101;53.002;6.488;2022-07-09T09:37:50;3.67;;;0.70;;
54191;SDS011;40101;53.002;6.488;2022-07-09T09:40:16;4.80;;;0.95;;
54191;SDS011;40101;53.002;6.488;2022-07-09T09:42:42;4.03;;;0.90;;
54191;SDS011;40101;53.002;6.488;2022-07-09T09:45:11;4.38;;;0.95;;
54191;SDS011;40101;53.002;6.488;2022-07-09T09:47:41;4.47;;;0.80;;
54191;SDS011;40101;53.002;6.488;2022-07-09T09:52:46;2.92;;;0.77;;
54191;SDS011;40101;53.002;6.488;2022-07-09T09:55:13;4.13;;;0.93;;
54191;SDS011;40101;53.002;6.488;2022-07-09T09:57:39;3.22;;;0.80;;
54191;SDS011;40101;53.002;6.488;2022-07-09T10:00:05;3.20;;;1.00;;
54191;SDS011;40101;53.002;6.488;2022-07-09T10:02:32;3.83;;;0.90;;
54191;SDS011;40101;53.002;6.488;2022-07-09T10:04:58;3.78;;;0.82;;
54191;SDS011;40101;53.002;6.488;2022-07-09T10:07:24;3.20;;;1.30;;
54191;SDS011;40101;53.002;6.488;2022-07-09T10:09:53;3.00;;;1.17;;
54191;SDS011;40101;53.002;6.488;2022-07-09T10:12:27;2.13;;;0.63;;
54191;SDS011;40101;53.002;6.488;2022-07-09T10:14:55;2.90;;;0.80;;
54191;SDS011;40101;53.002;6.488;2022-07-09T10:17:23;3.38;;;0.90;;
54191;SDS011;40101;53.002;6.488;2022-07-09T10:20:11;3.88;;;0.90;;
54191;SDS011;40101;53.002;6.488;2022-07-09T10:22:40;7.30;;;1.13;;
54191;SDS011;40101;53.002;6.488;2022-07-09T10:25:08;3.60;;;1.02;;
54191;SDS011;40101;53.002;6.488;2022-07-09T10:27:41;3.65;;;0.88;;
54191;SDS011;40101;53.002;6.488;2022-07-09T10:30:08;2.20;;;0.93;;
54191;SDS011;40101;53.002;6.488;2022-07-09T10:32:46;3.65;;;0.98;;
54191;SDS011;40101;53.002;6.488;2022-07-09T10:35:26;4.55;;;1.00;;
54191;SDS011;40101;53.002;6.488;2022-07-09T10:37:53;4.78;;;1.00;;
54191;SDS011;40101;53.002;6.488;2022-07-09T10:40:19;1.02;;;0.73;;
54191;SDS011;40101;53.002;6.488;2022-07-09T10:43:01;2.65;;;0.95;;
54191;SDS011;40101;53.002;6.488;2022-07-09T10:45:28;4.07;;;0.80;;
54191;SDS011;40101;53.002;6.488;2022-07-09T10:48:03;5.75;;;1.35;;
54191;SDS011;40101;53.002;6.488;2022-07-09T10:50:31;3.97;;;1.58;;
54191;SDS011;40101;53.002;6.488;2022-07-09T10:52:57;7.50;;;2.17;;
54191;SDS011;40101;53.002;6.488;2022-07-09T10:55:28;3.05;;;1.00;;
54191;SDS011;40101;53.002;6.488;2022-07-09T10:57:54;5.32;;;1.05;;
54191;SDS011;40101;53.002;6.488;2022-07-09T11:00:21;3.25;;;0.90;;
54191;SDS011;40101;53.002;6.488;2022-07-09T11:02:55;4.28;;;1.42;;
54191;SDS011;40101;53.002;6.488;2022-07-09T11:05:24;6.57;;;1.83;;
54191;SDS011;40101;53.002;6.488;2022-07-09T11:08:09;6.80;;;1.65;;
54191;SDS011;40101;53.002;6.488;2022-07-09T11:10:36;6.40;;;1.75;;
54191;SDS011;40101;53.002;6.488;2022-07-09T11:13:03;4.32;;;1.58;;
54191;SDS011;40101;53.002;6.488;2022-07-09T11:15:32;6.47;;;1.73;;
54191;SDS011;40101;53.002;6.488;2022-07-09T11:18:00;5.60;;;1.55;;
54191;SDS011;40101;53.002;6.488;2022-07-09T11:20:40;4.68;;;1.20;;
54191;SDS011;40101;53.002;6.488;2022-07-09T11:23:16;5.10;;;1.40;;
54191;SDS011;40101;53.002;6.488;2022-07-09T11:25:42;6.43;;;1.27;;
54191;SDS011;40101;53.002;6.488;2022-07-09T11:28:17;9.80;;;1.10;;
54191;SDS011;40101;53.002;6.488;2022-07-09T11:30:57;5.80;;;1.70;;
54191;SDS011;40101;53.002;6.488;2022-07-09T11:33:24;6.35;;;1.10;;
54191;SDS011;40101;53.002;6.488;2022-07-09T11:35:50;4.05;;;0.98;;
54191;SDS011;40101;53.002;6.488;2022-07-09T11:38:15;5.97;;;1.20;;
54191;SDS011;40101;53.002;6.488;2022-07-09T11:40:41;4.18;;;1.10;;
54191;SDS011;40101;53.002;6.488;2022-07-09T11:43:13;4.70;;;1.10;;
54191;SDS011;40101;53.002;6.488;2022-07-09T11:45:50;3.67;;;1.10;;
54191;SDS011;40101;53.002;6.488;2022-07-09T11:48:17;3.80;;;1.08;;
54191;SDS011;40101;53.002;6.488;2022-07-09T11:50:43;4.95;;;1.05;;
54191;SDS011;40101;53.002;6.488;2022-07-09T11:53:23;3.75;;;0.98;;
54191;SDS011;40101;53.002;6.488;2022-07-09T11:56:01;5.32;;;0.82;;
54191;SDS011;40101;53.002;6.488;2022-07-09T11:58:29;3.97;;;0.95;;
54191;SDS011;40101;53.002;6.488;2022-07-09T12:00:54;5.70;;;1.48;;
54191;SDS011;40101;53.002;6.488;2022-07-09T12:03:24;2.95;;;0.73;;
54191;SDS011;40101;53.002;6.488;2022-07-09T12:05:54;4.80;;;0.93;;
54191;SDS011;40101;53.002;6.488;2022-07-09T12:08:27;3.97;;;1.13;;
54191;SDS011;40101;53.002;6.488;2022-07-09T12:10:56;8.18;;;1.30;;
54191;SDS011;40101;53.002;6.488;2022-07-09T12:13:23;4.80;;;0.80;;
54191;SDS011;40101;53.002;6.488;2022-07-09T12:15:49;4.65;;;0.82;;
54191;SDS011;40101;53.002;6.488;2022-07-09T12:18:15;1.90;;;0.50;;
54191;SDS011;40101;53.002;6.488;2022-07-09T12:20:40;4.55;;;0.75;;
54191;SDS011;40101;53.002;6.488;2022-07-09T12:23:06;3.60;;;0.68;;
54191;SDS011;40101;53.002;6.488;2022-07-09T12:25:32;3.33;;;1.05;;
54191;SDS011;40101;53.002;6.488;2022-07-09T12:27:58;1.33;;;0.60;;
54191;SDS011;40101;53.002;6.488;2022-07-09T12:30:32;4.07;;;0.77;;
54191;SDS011;40101;53.002;6.488;2022-07-09T12:32:58;2.63;;;0.70;;
54191;SDS011;40101;53.002;6.488;2022-07-09T12:35:24;4.68;;;0.93;;
54191;SDS011;40101;53.002;6.488;2022-07-09T12:37:50;4.63;;;1.35;;
54191;SDS011;40101;53.002;6.488;2022-07-09T12:40:17;5.32;;;0.68;;
54191;SDS011;40101;53.002;6.488;2022-07-09T12:42:43;3.13;;;0.80;;
54191;SDS011;40101;53.002;6.488;2022-07-09T12:45:09;4.40;;;1.05;;
54191;SDS011;40101;53.002;6.488;2022-07-09T12:47:35;3.92;;;1.05;;
54191;SDS011;40101;53.002;6.488;2022-07-09T12:50:01;1.75;;;0.75;;
54191;SDS011;40101;53.002;6.488;2022-07-09T12:52:30;6.90;;;0.82;;
54191;SDS011;40101;53.002;6.488;2022-07-09T12:54:58;2.88;;;0.95;;
54191;SDS011;40101;53.002;6.488;2022-07-09T12:57:25;3.47;;;0.60;;
54191;SDS011;40101;53.002;6.488;2022-07-09T12:59:51;3.97;;;0.80;;
54191;SDS011;40101;53.002;6.488;2022-07-09T13:02:17;4.13;;;1.02;;
54191;SDS011;40101;53.002;6.488;2022-07-09T13:04:43;3.42;;;0.80;;
54191;SDS011;40101;53.002;6.488;2022-07-09T13:07:08;3.80;;;1.40;;
54191;SDS011;40101;53.002;6.488;2022-07-09T13:09:34;1.80;;;0.50;;
54191;SDS011;40101;53.002;6.488;2022-07-09T13:12:00;4.15;;;1.02;;
54191;SDS011;40101;53.002;6.488;2022-07-09T13:14:25;4.03;;;0.90;;
54191;SDS011;40101;53.002;6.488;2022-07-09T13:16:51;5.38;;;1.00;;
54191;SDS011;40101;53.002;6.488;2022-07-09T13:19:17;3.67;;;0.63;;
54191;SDS011;40101;53.002;6.488;2022-07-09T13:21:42;4.43;;;1.00;;
54191;SDS011;40101;53.002;6.488;2022-07-09T13:24:08;2.45;;;0.63;;
54191;SDS011;40101;53.002;6.488;2022-07-09T13:26:33;3.70;;;0.70;;
54191;SDS011;40101;53.002;6.488;2022-07-09T13:28:59;6.47;;;1.10;;
54191;SDS011;40101;53.002;6.488;2022-07-09T13:31:25;6.75;;;1.63;;
54191;SDS011;40101;53.002;6.488;2022-07-09T13:33:51;5.43;;;1.35;;
54191;SDS011;40101;53.002;6.488;2022-07-09T13:36:16;6.07;;;1.00;;
54191;SDS011;40101;53.002;6.488;2022-07-09T13:38:42;5.43;;;1.85;;
54191;SDS011;40101;53.002;6.488;2022-07-09T13:41:08;5.30;;;1.35;;
54191;SDS011;40101;53.002;6.488;2022-07-09T13:43:33;3.45;;;0.70;;
54191;SDS011;40101;53.002;6.488;2022-07-09T13:45:59;4.43;;;0.98;;
54191;SDS011;40101;53.002;6.488;2022-07-09T13:48:25;6.65;;;1.30;;
54191;SDS011;40101;53.002;6.488;2022-07-09T13:50:52;4.25;;;0.90;;
54191;SDS011;40101;53.002;6.488;2022-07-09T13:53:19;2.78;;;0.68;;
54191;SDS011;40101;53.002;6.488;2022-07-09T13:55:45;1.70;;;0.60;;
54191;SDS011;40101;53.002;6.488;2022-07-09T13:58:11;6.43;;;1.30;;
54191;SDS011;40101;53.002;6.488;2022-07-09T14:00:37;3.95;;;0.90;;
54191;SDS011;40101;53.002;6.488;2022-07-09T14:03:03;2.83;;;0.85;;
54191;SDS011;40101;53.002;6.488;2022-07-09T14:05:29;3.13;;;0.80;;
54191;SDS011;40101;53.002;6.488;2022-07-09T14:07:55;5.10;;;0.70;;
54191;SDS011;40101;53.002;6.488;2022-07-09T14:10:21;3.95;;;0.85;;
54191;SDS011;40101;53.002;6.488;2022-07-09T14:12:47;2.70;;;0.77;;
54191;SDS011;40101;53.002;6.488;2022-07-09T14:15:13;4.68;;;1.02;;
54191;SDS011;40101;53.002;6.488;2022-07-09T14:17:39;3.03;;;0.60;;
54191;SDS011;40101;53.002;6.488;2022-07-09T14:20:06;5.55;;;1.00;;
54191;SDS011;40101;53.002;6.488;2022-07-09T14:22:32;4.70;;;0.95;;
54191;SDS011;40101;53.002;6.488;2022-07-09T14:24:58;1.48;;;0.70;;
54191;SDS011;40101;53.002;6.488;2022-07-09T14:27:23;5.00;;;0.88;;
54191;SDS011;40101;53.002;6.488;2022-07-09T14:29:49;3.28;;;0.90;;
54191;SDS011;40101;53.002;6.488;2022-07-09T14:32:15;3.42;;;0.60;;
54191;SDS011;40101;53.002;6.488;2022-07-09T14:34:40;4.32;;;1.55;;
54191;SDS011;40101;53.002;6.488;2022-07-09T14:37:06;5.55;;;1.00;;
54191;SDS011;40101;53.002;6.488;2022-07-09T14:39:31;5.25;;;1.02;;
54191;SDS011;40101;53.002;6.488;2022-07-09T14:41:57;4.38;;;1.42;;